sensor_id;sensor_type;location;lat;lon;timestamp;P1;durP1;ratioP1;P2;durP2;ratioP2
44078;SDS011;29744;49.078;12.878;2024-01-30T00:01:03;2.08;;;1.10;;
44078;SDS011;29744;49.078;12.878;2024-01-30T00:06:03;1.90;;;1.10;;
44078;SDS011;29744;49.078;12.878;2024-01-30T00:11:04;2.17;;;1.30;;
44078;SDS011;29744;49.078;12.878;2024-01-30T00:16:04;2.10;;;1.05;;
44078;SDS011;29744;49.078;12.878;2024-01-30T00:21:05;1.95;;;1.20;;
44078;SDS011;29744;49.078;12.878;2024-01-30T00:26:05;2.20;;;1.33;;
44078;SDS011;29744;49.078;12.878;2024-01-30T00:31:06;2.17;;;1.30;;
44078;SDS011;29744;49.078;12.878;2024-01-30T00:36:07;2.38;;;1.20;;
44078;SDS011;29744;49.078;12.878;2024-01-30T00:41:08;2.15;;;1.27;;
44078;SDS011;29744;49.078;12.878;2024-01-30T00:46:09;2.17;;;1.35;;
44078;SDS011;29744;49.078;12.878;2024-01-30T00:51:09;2.20;;;1.30;;
44078;SDS011;29744;49.078;12.878;2024-01-30T00:56:10;1.80;;;1.10;;
44078;SDS011;29744;49.078;12.878;2024-01-30T01:01:10;2.28;;;1.27;;
44078;SDS011;29744;49.078;12.878;2024-01-30T01:06:11;2.55;;;1.30;;
44078;SDS011;29744;49.078;12.878;2024-01-30T01:11:11;2.47;;;1.50;;
44078;SDS011;29744;49.078;12.878;2024-01-30T01:16:11;2.55;;;1.33;;
44078;SDS011;29744;49.078;12.878;2024-01-30T01:21:12;2.72;;;1.40;;
44078;SDS011;29744;49.078;12.878;2024-01-30T01:26:12;2.06;;;1.32;;
44078;SDS011;29744;49.078;12.878;2024-01-30T01:31:13;2.28;;;1.13;;
44078;SDS011;29744;49.078;12.878;2024-01-30T01:36:13;2.10;;;1.20;;
44078;SDS011;29744;49.078;12.878;2024-01-30T01:41:13;2.58;;;1.50;;
44078;SDS011;29744;49.078;12.878;2024-01-30T01:46:14;2.22;;;1.26;;
44078;SDS011;29744;49.078;12.878;2024-01-30T01:51:15;2.80;;;1.42;;
44078;SDS011;29744;49.078;12.878;2024-01-30T01:56:15;2.22;;;1.23;;
44078;SDS011;29744;49.078;12.878;2024-01-30T02:01:17;1.98;;;1.20;;
44078;SDS011;29744;49.078;12.878;2024-01-30T02:06:19;2.42;;;1.38;;
44078;SDS011;29744;49.078;12.878;2024-01-30T02:11:20;2.20;;;1.23;;
44078;SDS011;29744;49.078;12.878;2024-01-30T02:16:22;2.38;;;1.40;;
44078;SDS011;29744;49.078;12.878;2024-01-30T02:21:23;2.33;;;1.40;;
44078;SDS011;29744;49.078;12.878;2024-01-30T02:26:24;1.80;;;1.08;;
44078;SDS011;29744;49.078;12.878;2024-01-30T02:31:25;2.42;;;1.40;;
44078;SDS011;29744;49.078;12.878;2024-01-30T02:36:25;2.05;;;1.25;;
44078;SDS011;29744;49.078;12.878;2024-01-30T02:41:26;2.47;;;1.30;;
44078;SDS011;29744;49.078;12.878;2024-01-30T02:46:26;2.16;;;1.42;;
44078;SDS011;29744;49.078;12.878;2024-01-30T02:51:26;2.88;;;1.45;;
44078;SDS011;29744;49.078;12.878;2024-01-30T02:56:27;2.80;;;1.48;;
44078;SDS011;29744;49.078;12.878;2024-01-30T03:01:27;1.90;;;1.20;;
44078;SDS011;29744;49.078;12.878;2024-01-30T03:06:27;2.22;;;1.10;;
44078;SDS011;29744;49.078;12.878;2024-01-30T03:11:28;1.80;;;1.10;;
44078;SDS011;29744;49.078;12.878;2024-01-30T03:16:28;2.58;;;1.30;;
44078;SDS011;29744;49.078;12.878;2024-01-30T03:21:29;1.90;;;1.10;;
44078;SDS011;29744;49.078;12.878;2024-01-30T03:26:29;2.00;;;1.23;;
44078;SDS011;29744;49.078;12.878;2024-01-30T03:31:30;2.40;;;1.40;;
44078;SDS011;29744;49.078;12.878;2024-01-30T03:36:30;1.85;;;1.20;;
44078;SDS011;29744;49.078;12.878;2024-01-30T03:41:32;2.28;;;1.27;;
44078;SDS011;29744;49.078;12.878;2024-01-30T03:46:33;2.10;;;1.27;;
44078;SDS011;29744;49.078;12.878;2024-01-30T03:51:33;2.15;;;1.30;;
44078;SDS011;29744;49.078;12.878;2024-01-30T03:56:34;1.90;;;1.05;;
44078;SDS011;29744;49.078;12.878;2024-01-30T04:01:34;1.98;;;1.26;;
44078;SDS011;29744;49.078;12.878;2024-01-30T04:06:34;2.50;;;1.22;;
44078;SDS011;29744;49.078;12.878;2024-01-30T04:11:35;1.95;;;1.20;;
44078;SDS011;29744;49.078;12.878;2024-01-30T04:16:35;2.35;;;1.27;;
44078;SDS011;29744;49.078;12.878;2024-01-30T04:21:36;2.55;;;1.35;;
44078;SDS011;29744;49.078;12.878;2024-01-30T04:26:36;2.90;;;1.52;;
44078;SDS011;29744;49.078;12.878;2024-01-30T04:31:36;2.15;;;1.30;;
44078;SDS011;29744;49.078;12.878;2024-01-30T04:36:37;1.78;;;1.10;;
44078;SDS011;29744;49.078;12.878;2024-01-30T04:41:37;2.06;;;1.12;;
44078;SDS011;29744;49.078;12.878;2024-01-30T04:46:37;2.00;;;1.20;;
44078;SDS011;29744;49.078;12.878;2024-01-30T04:51:38;2.33;;;1.20;;
44078;SDS011;29744;49.078;12.878;2024-01-30T04:56:38;2.16;;;1.18;;
44078;SDS011;29744;49.078;12.878;2024-01-30T05:01:39;2.10;;;1.25;;
44078;SDS011;29744;49.078;12.878;2024-01-30T05:06:39;2.20;;;1.20;;
44078;SDS011;29744;49.078;12.878;2024-01-30T05:11:40;2.38;;;1.28;;
44078;SDS011;29744;49.078;12.878;2024-01-30T05:16:41;1.92;;;1.02;;
44078;SDS011;29744;49.078;12.878;2024-01-30T05:21:42;1.92;;;1.10;;
44078;SDS011;29744;49.078;12.878;2024-01-30T05:26:43;1.75;;;1.05;;
44078;SDS011;29744;49.078;12.878;2024-01-30T05:31:43;2.45;;;1.42;;
44078;SDS011;29744;49.078;12.878;2024-01-30T05:36:43;1.83;;;1.15;;
44078;SDS011;29744;49.078;12.878;2024-01-30T05:41:44;2.20;;;1.17;;
44078;SDS011;29744;49.078;12.878;2024-01-30T05:46:44;2.13;;;1.20;;
44078;SDS011;29744;49.078;12.878;2024-01-30T05:51:48;2.03;;;1.10;;
44078;SDS011;29744;49.078;12.878;2024-01-30T05:56:48;2.20;;;1.20;;
44078;SDS011;29744;49.078;12.878;2024-01-30T06:01:49;1.73;;;1.00;;
44078;SDS011;29744;49.078;12.878;2024-01-30T06:06:49;2.30;;;1.30;;
44078;SDS011;29744;49.078;12.878;2024-01-30T06:11:49;1.88;;;1.00;;
44078;SDS011;29744;49.078;12.878;2024-01-30T06:16:50;2.03;;;1.10;;
44078;SDS011;29744;49.078;12.878;2024-01-30T06:21:50;1.73;;;1.10;;
44078;SDS011;29744;49.078;12.878;2024-01-30T06:26:50;2.30;;;1.30;;
44078;SDS011;29744;49.078;12.878;2024-01-30T06:31:51;1.75;;;1.10;;
44078;SDS011;29744;49.078;12.878;2024-01-30T06:36:51;1.77;;;0.98;;
44078;SDS011;29744;49.078;12.878;2024-01-30T06:41:51;1.80;;;1.08;;
44078;SDS011;29744;49.078;12.878;2024-01-30T06:46:52;1.63;;;0.90;;
44078;SDS011;29744;49.078;12.878;2024-01-30T06:51:52;1.70;;;1.00;;
44078;SDS011;29744;49.078;12.878;2024-01-30T06:56:52;1.92;;;1.00;;
44078;SDS011;29744;49.078;12.878;2024-01-30T07:01:53;2.13;;;0.98;;
44078;SDS011;29744;49.078;12.878;2024-01-30T07:06:54;1.20;;;0.90;;
44078;SDS011;29744;49.078;12.878;2024-01-30T07:11:54;1.58;;;1.00;;
44078;SDS011;29744;49.078;12.878;2024-01-30T07:16:55;2.25;;;1.20;;
44078;SDS011;29744;49.078;12.878;2024-01-30T07:21:55;1.90;;;1.10;;
44078;SDS011;29744;49.078;12.878;2024-01-30T07:26:56;1.90;;;1.10;;
44078;SDS011;29744;49.078;12.878;2024-01-30T07:31:57;2.03;;;1.13;;
44078;SDS011;29744;49.078;12.878;2024-01-30T07:36:57;2.17;;;1.10;;
44078;SDS011;29744;49.078;12.878;2024-01-30T07:41:58;2.10;;;1.10;;
44078;SDS011;29744;49.078;12.878;2024-01-30T07:46:58;1.83;;;1.08;;
44078;SDS011;29744;49.078;12.878;2024-01-30T07:51:59;1.98;;;1.10;;
44078;SDS011;29744;49.078;12.878;2024-01-30T07:57:00;1.80;;;1.13;;
44078;SDS011;29744;49.078;12.878;2024-01-30T08:02:00;1.90;;;1.10;;
44078;SDS011;29744;49.078;12.878;2024-01-30T08:07:01;1.95;;;1.30;;
44078;SDS011;29744;49.078;12.878;2024-01-30T08:12:01;2.08;;;1.17;;
44078;SDS011;29744;49.078;12.878;2024-01-30T08:17:02;1.50;;;1.00;;
44078;SDS011;29744;49.078;12.878;2024-01-30T08:22:02;1.85;;;1.00;;
44078;SDS011;29744;49.078;12.878;2024-01-30T08:27:03;2.47;;;1.40;;
44078;SDS011;29744;49.078;12.878;2024-01-30T08:32:05;1.83;;;1.10;;
44078;SDS011;29744;49.078;12.878;2024-01-30T08:37:06;1.50;;;1.00;;
44078;SDS011;29744;49.078;12.878;2024-01-30T08:42:06;2.30;;;1.30;;
44078;SDS011;29744;49.078;12.878;2024-01-30T08:47:08;1.65;;;1.00;;
44078;SDS011;29744;49.078;12.878;2024-01-30T08:52:08;1.73;;;1.10;;
44078;SDS011;29744;49.078;12.878;2024-01-30T08:57:08;9.85;;;6.20;;
44078;SDS011;29744;49.078;12.878;2024-01-30T09:02:09;10.50;;;7.40;;
44078;SDS011;29744;49.078;12.878;2024-01-30T09:07:10;10.77;;;7.18;;
44078;SDS011;29744;49.078;12.878;2024-01-30T09:12:10;10.80;;;6.38;;
44078;SDS011;29744;49.078;12.878;2024-01-30T09:17:11;12.85;;;6.90;;
44078;SDS011;29744;49.078;12.878;2024-01-30T09:22:12;8.73;;;6.28;;
44078;SDS011;29744;49.078;12.878;2024-01-30T09:27:12;8.50;;;6.38;;
44078;SDS011;29744;49.078;12.878;2024-01-30T09:32:12;10.10;;;6.38;;
44078;SDS011;29744;49.078;12.878;2024-01-30T09:37:13;9.15;;;6.18;;
44078;SDS011;29744;49.078;12.878;2024-01-30T09:47:26;8.38;;;6.00;;
44078;SDS011;29744;49.078;12.878;2024-01-30T09:52:26;8.48;;;6.04;;
44078;SDS011;29744;49.078;12.878;2024-01-30T09:57:27;7.55;;;5.82;;
44078;SDS011;29744;49.078;12.878;2024-01-30T10:02:27;8.93;;;6.10;;
44078;SDS011;29744;49.078;12.878;2024-01-30T10:07:28;9.23;;;6.03;;
44078;SDS011;29744;49.078;12.878;2024-01-30T10:12:29;8.38;;;5.70;;
44078;SDS011;29744;49.078;12.878;2024-01-30T10:17:30;7.43;;;5.43;;
44078;SDS011;29744;49.078;12.878;2024-01-30T10:22:30;8.30;;;5.53;;
44078;SDS011;29744;49.078;12.878;2024-01-30T10:27:30;8.60;;;5.65;;
44078;SDS011;29744;49.078;12.878;2024-01-30T10:32:31;8.15;;;5.63;;
44078;SDS011;29744;49.078;12.878;2024-01-30T10:37:31;7.10;;;4.97;;
44078;SDS011;29744;49.078;12.878;2024-01-30T10:42:33;8.60;;;5.30;;
44078;SDS011;29744;49.078;12.878;2024-01-30T10:47:36;6.63;;;4.75;;
44078;SDS011;29744;49.078;12.878;2024-01-30T10:52:37;7.40;;;5.28;;
44078;SDS011;29744;49.078;12.878;2024-01-30T10:57:38;6.75;;;4.65;;
44078;SDS011;29744;49.078;12.878;2024-01-30T11:02:41;7.47;;;5.25;;
44078;SDS011;29744;49.078;12.878;2024-01-30T11:07:43;6.50;;;4.47;;
44078;SDS011;29744;49.078;12.878;2024-01-30T11:12:45;5.97;;;4.25;;
44078;SDS011;29744;49.078;12.878;2024-01-30T11:17:50;6.65;;;4.47;;
44078;SDS011;29744;49.078;12.878;2024-01-30T11:22:52;7.03;;;4.90;;
44078;SDS011;29744;49.078;12.878;2024-01-30T11:27:55;6.75;;;4.57;;
44078;SDS011;29744;49.078;12.878;2024-01-30T11:33:03;6.47;;;4.63;;
44078;SDS011;29744;49.078;12.878;2024-01-30T11:38:06;7.10;;;4.70;;
44078;SDS011;29744;49.078;12.878;2024-01-30T11:43:07;7.47;;;5.20;;
44078;SDS011;29744;49.078;12.878;2024-01-30T11:48:09;5.85;;;4.10;;
44078;SDS011;29744;49.078;12.878;2024-01-30T11:53:12;6.22;;;4.03;;
44078;SDS011;29744;49.078;12.878;2024-01-30T11:58:12;6.30;;;3.90;;
44078;SDS011;29744;49.078;12.878;2024-01-30T12:03:13;6.10;;;4.15;;
44078;SDS011;29744;49.078;12.878;2024-01-30T12:08:16;6.68;;;4.60;;
44078;SDS011;29744;49.078;12.878;2024-01-30T12:13:16;6.18;;;4.40;;
44078;SDS011;29744;49.078;12.878;2024-01-30T12:18:20;5.55;;;3.95;;
44078;SDS011;29744;49.078;12.878;2024-01-30T12:23:20;6.00;;;4.05;;
44078;SDS011;29744;49.078;12.878;2024-01-30T12:28:25;5.63;;;3.85;;
44078;SDS011;29744;49.078;12.878;2024-01-30T12:33:29;6.22;;;3.95;;
44078;SDS011;29744;49.078;12.878;2024-01-30T12:38:30;6.05;;;4.10;;
44078;SDS011;29744;49.078;12.878;2024-01-30T12:43:30;6.28;;;4.25;;
44078;SDS011;29744;49.078;12.878;2024-01-30T12:48:31;6.75;;;4.38;;
44078;SDS011;29744;49.078;12.878;2024-01-30T12:53:31;6.25;;;3.88;;
44078;SDS011;29744;49.078;12.878;2024-01-30T12:58:32;5.68;;;3.67;;
44078;SDS011;29744;49.078;12.878;2024-01-30T13:03:33;6.00;;;3.75;;
44078;SDS011;29744;49.078;12.878;2024-01-30T13:08:33;5.53;;;3.65;;
44078;SDS011;29744;49.078;12.878;2024-01-30T13:13:33;5.80;;;3.58;;
44078;SDS011;29744;49.078;12.878;2024-01-30T13:18:35;5.30;;;3.72;;
44078;SDS011;29744;49.078;12.878;2024-01-30T13:23:36;5.25;;;3.67;;
44078;SDS011;29744;49.078;12.878;2024-01-30T13:28:36;6.15;;;4.10;;
44078;SDS011;29744;49.078;12.878;2024-01-30T13:33:36;5.40;;;3.54;;
44078;SDS011;29744;49.078;12.878;2024-01-30T13:38:37;5.34;;;3.40;;
44078;SDS011;29744;49.078;12.878;2024-01-30T13:43:38;5.20;;;3.42;;
44078;SDS011;29744;49.078;12.878;2024-01-30T13:48:38;5.82;;;3.42;;
44078;SDS011;29744;49.078;12.878;2024-01-30T13:53:38;5.53;;;3.80;;
44078;SDS011;29744;49.078;12.878;2024-01-30T13:58:38;4.63;;;3.30;;
44078;SDS011;29744;49.078;12.878;2024-01-30T14:03:39;4.78;;;3.47;;
44078;SDS011;29744;49.078;12.878;2024-01-30T14:08:40;4.60;;;3.25;;
44078;SDS011;29744;49.078;12.878;2024-01-30T14:13:40;5.76;;;3.68;;
44078;SDS011;29744;49.078;12.878;2024-01-30T14:18:40;4.72;;;3.25;;
44078;SDS011;29744;49.078;12.878;2024-01-30T14:23:41;5.95;;;3.40;;
44078;SDS011;29744;49.078;12.878;2024-01-30T14:28:41;4.96;;;3.20;;
44078;SDS011;29744;49.078;12.878;2024-01-30T14:33:43;4.60;;;3.00;;
44078;SDS011;29744;49.078;12.878;2024-01-30T14:38:43;4.82;;;3.20;;
44078;SDS011;29744;49.078;12.878;2024-01-30T14:43:44;4.38;;;3.20;;
44078;SDS011;29744;49.078;12.878;2024-01-30T14:48:45;4.92;;;3.16;;
44078;SDS011;29744;49.078;12.878;2024-01-30T14:53:45;5.18;;;3.30;;
44078;SDS011;29744;49.078;12.878;2024-01-30T14:58:45;5.32;;;3.17;;
44078;SDS011;29744;49.078;12.878;2024-01-30T15:03:46;5.82;;;3.45;;
44078;SDS011;29744;49.078;12.878;2024-01-30T15:08:46;4.53;;;2.80;;
44078;SDS011;29744;49.078;12.878;2024-01-30T15:13:47;4.72;;;3.22;;
44078;SDS011;29744;49.078;12.878;2024-01-30T15:18:47;4.45;;;3.17;;
44078;SDS011;29744;49.078;12.878;2024-01-30T15:23:47;4.34;;;2.92;;
44078;SDS011;29744;49.078;12.878;2024-01-30T15:28:48;4.78;;;3.03;;
44078;SDS011;29744;49.078;12.878;2024-01-30T15:33:48;6.47;;;3.08;;
44078;SDS011;29744;49.078;12.878;2024-01-30T15:38:49;4.53;;;2.75;;
44078;SDS011;29744;49.078;12.878;2024-01-30T15:43:49;4.28;;;2.72;;
44078;SDS011;29744;49.078;12.878;2024-01-30T15:48:49;4.82;;;3.00;;
44078;SDS011;29744;49.078;12.878;2024-01-30T15:53:50;4.50;;;3.00;;
44078;SDS011;29744;49.078;12.878;2024-01-30T15:58:51;4.25;;;2.70;;
44078;SDS011;29744;49.078;12.878;2024-01-30T16:03:52;4.28;;;2.60;;
44078;SDS011;29744;49.078;12.878;2024-01-30T16:08:52;4.50;;;2.70;;
44078;SDS011;29744;49.078;12.878;2024-01-30T16:13:52;5.40;;;2.78;;
44078;SDS011;29744;49.078;12.878;2024-01-30T16:18:53;4.30;;;2.75;;
44078;SDS011;29744;49.078;12.878;2024-01-30T16:23:53;4.35;;;2.80;;
44078;SDS011;29744;49.078;12.878;2024-01-30T16:28:54;4.55;;;2.70;;
44078;SDS011;29744;49.078;12.878;2024-01-30T16:33:54;4.35;;;2.88;;
44078;SDS011;29744;49.078;12.878;2024-01-30T16:38:57;3.92;;;2.75;;
44078;SDS011;29744;49.078;12.878;2024-01-30T16:43:58;4.45;;;2.45;;
44078;SDS011;29744;49.078;12.878;2024-01-30T16:48:58;4.18;;;2.70;;
44078;SDS011;29744;49.078;12.878;2024-01-30T16:53:59;4.32;;;2.60;;
44078;SDS011;29744;49.078;12.878;2024-01-30T16:59:00;4.22;;;2.67;;
44078;SDS011;29744;49.078;12.878;2024-01-30T17:04:01;4.20;;;2.80;;
44078;SDS011;29744;49.078;12.878;2024-01-30T17:09:01;4.40;;;2.63;;
44078;SDS011;29744;49.078;12.878;2024-01-30T17:14:02;4.18;;;2.38;;
44078;SDS011;29744;49.078;12.878;2024-01-30T17:19:02;3.40;;;2.15;;
44078;SDS011;29744;49.078;12.878;2024-01-30T17:24:03;4.43;;;2.75;;
44078;SDS011;29744;49.078;12.878;2024-01-30T17:29:04;3.90;;;2.42;;
44078;SDS011;29744;49.078;12.878;2024-01-30T17:34:05;4.18;;;2.58;;
44078;SDS011;29744;49.078;12.878;2024-01-30T17:39:05;4.45;;;2.53;;
44078;SDS011;29744;49.078;12.878;2024-01-30T17:44:07;3.67;;;2.30;;
44078;SDS011;29744;49.078;12.878;2024-01-30T17:49:07;4.13;;;2.50;;
44078;SDS011;29744;49.078;12.878;2024-01-30T17:54:08;3.65;;;2.45;;
44078;SDS011;29744;49.078;12.878;2024-01-30T17:59:08;3.20;;;1.88;;
44078;SDS011;29744;49.078;12.878;2024-01-30T18:04:08;3.63;;;2.00;;
44078;SDS011;29744;49.078;12.878;2024-01-30T18:09:09;3.10;;;1.85;;
44078;SDS011;29744;49.078;12.878;2024-01-30T18:14:09;3.55;;;2.20;;
44078;SDS011;29744;49.078;12.878;2024-01-30T18:19:10;3.92;;;2.28;;
44078;SDS011;29744;49.078;12.878;2024-01-30T18:24:10;3.13;;;2.10;;
44078;SDS011;29744;49.078;12.878;2024-01-30T18:29:10;3.67;;;2.10;;
44078;SDS011;29744;49.078;12.878;2024-01-30T18:34:11;3.13;;;2.03;;
44078;SDS011;29744;49.078;12.878;2024-01-30T18:39:11;4.05;;;2.30;;
44078;SDS011;29744;49.078;12.878;2024-01-30T18:44:11;3.70;;;2.10;;
44078;SDS011;29744;49.078;12.878;2024-01-30T18:49:12;3.72;;;2.25;;
44078;SDS011;29744;49.078;12.878;2024-01-30T18:54:12;3.33;;;2.10;;
44078;SDS011;29744;49.078;12.878;2024-01-30T18:59:12;3.00;;;2.00;;
44078;SDS011;29744;49.078;12.878;2024-01-30T19:04:17;3.30;;;2.10;;
44078;SDS011;29744;49.078;12.878;2024-01-30T19:09:17;2.97;;;1.85;;
44078;SDS011;29744;49.078;12.878;2024-01-30T19:14:18;3.95;;;2.30;;
44078;SDS011;29744;49.078;12.878;2024-01-30T19:19:18;2.85;;;1.85;;
44078;SDS011;29744;49.078;12.878;2024-01-30T19:24:19;3.13;;;2.00;;
44078;SDS011;29744;49.078;12.878;2024-01-30T19:29:19;3.10;;;2.00;;
44078;SDS011;29744;49.078;12.878;2024-01-30T19:34:19;3.45;;;2.10;;
44078;SDS011;29744;49.078;12.878;2024-01-30T19:39:20;3.28;;;2.10;;
44078;SDS011;29744;49.078;12.878;2024-01-30T19:44:21;2.33;;;1.70;;
44078;SDS011;29744;49.078;12.878;2024-01-30T19:49:21;3.30;;;1.95;;
44078;SDS011;29744;49.078;12.878;2024-01-30T19:54:22;3.30;;;2.13;;
44078;SDS011;29744;49.078;12.878;2024-01-30T19:59:28;3.55;;;2.00;;
44078;SDS011;29744;49.078;12.878;2024-01-30T20:04:29;3.85;;;2.20;;
44078;SDS011;29744;49.078;12.878;2024-01-30T20:09:29;3.50;;;2.10;;
44078;SDS011;29744;49.078;12.878;2024-01-30T20:14:29;3.22;;;1.95;;
44078;SDS011;29744;49.078;12.878;2024-01-30T20:19:30;2.83;;;1.90;;
44078;SDS011;29744;49.078;12.878;2024-01-30T20:24:30;3.05;;;1.77;;
44078;SDS011;29744;49.078;12.878;2024-01-30T20:29:31;3.13;;;1.98;;
44078;SDS011;29744;49.078;12.878;2024-01-30T20:34:31;3.58;;;2.33;;
44078;SDS011;29744;49.078;12.878;2024-01-30T20:39:31;3.15;;;1.92;;
44078;SDS011;29744;49.078;12.878;2024-01-30T20:44:32;3.30;;;1.90;;
44078;SDS011;29744;49.078;12.878;2024-01-30T20:49:32;3.78;;;2.10;;
44078;SDS011;29744;49.078;12.878;2024-01-30T20:54:33;3.53;;;2.20;;
44078;SDS011;29744;49.078;12.878;2024-01-30T20:59:34;3.30;;;1.90;;
44078;SDS011;29744;49.078;12.878;2024-01-30T21:04:35;3.05;;;1.95;;
44078;SDS011;29744;49.078;12.878;2024-01-30T21:09:35;3.15;;;1.80;;
44078;SDS011;29744;49.078;12.878;2024-01-30T21:14:35;2.45;;;1.60;;
44078;SDS011;29744;49.078;12.878;2024-01-30T21:19:36;2.97;;;1.83;;
44078;SDS011;29744;49.078;12.878;2024-01-30T21:24:36;3.16;;;2.02;;
44078;SDS011;29744;49.078;12.878;2024-01-30T21:29:36;3.75;;;1.90;;
44078;SDS011;29744;49.078;12.878;2024-01-30T21:34:37;3.10;;;1.88;;
44078;SDS011;29744;49.078;12.878;2024-01-30T21:39:37;3.53;;;1.98;;
44078;SDS011;29744;49.078;12.878;2024-01-30T21:44:38;3.20;;;1.90;;
44078;SDS011;29744;49.078;12.878;2024-01-30T21:49:39;3.35;;;2.05;;
44078;SDS011;29744;49.078;12.878;2024-01-30T21:54:39;3.38;;;1.90;;
44078;SDS011;29744;49.078;12.878;2024-01-30T21:59:40;2.85;;;1.70;;
44078;SDS011;29744;49.078;12.878;2024-01-30T22:04:41;3.20;;;2.00;;
44078;SDS011;29744;49.078;12.878;2024-01-30T22:09:42;2.90;;;1.80;;
44078;SDS011;29744;49.078;12.878;2024-01-30T22:14:42;3.05;;;1.83;;
44078;SDS011;29744;49.078;12.878;2024-01-30T22:19:43;3.83;;;1.90;;
44078;SDS011;29744;49.078;12.878;2024-01-30T22:24:43;3.53;;;2.05;;
44078;SDS011;29744;49.078;12.878;2024-01-30T22:29:44;3.78;;;1.98;;
44078;SDS011;29744;49.078;12.878;2024-01-30T22:34:44;2.88;;;1.70;;
44078;SDS011;29744;49.078;12.878;2024-01-30T22:39:44;3.13;;;1.75;;
44078;SDS011;29744;49.078;12.878;2024-01-30T22:44:45;3.30;;;1.80;;
44078;SDS011;29744;49.078;12.878;2024-01-30T22:49:46;3.67;;;2.00;;
44078;SDS011;29744;49.078;12.878;2024-01-30T22:54:46;2.90;;;1.85;;
44078;SDS011;29744;49.078;12.878;2024-01-30T22:59:47;3.30;;;1.95;;
44078;SDS011;29744;49.078;12.878;2024-01-30T23:04:47;3.10;;;1.75;;
44078;SDS011;29744;49.078;12.878;2024-01-30T23:09:47;3.22;;;2.10;;
44078;SDS011;29744;49.078;12.878;2024-01-30T23:14:48;3.13;;;1.92;;
44078;SDS011;29744;49.078;12.878;2024-01-30T23:19:49;3.08;;;1.80;;
44078;SDS011;29744;49.078;12.878;2024-01-30T23:24:49;2.97;;;1.70;;
44078;SDS011;29744;49.078;12.878;2024-01-30T23:29:50;4.02;;;1.88;;
44078;SDS011;29744;49.078;12.878;2024-01-30T23:34:51;2.50;;;1.60;;
44078;SDS011;29744;49.078;12.878;2024-01-30T23:39:51;3.58;;;1.90;;
44078;SDS011;29744;49.078;12.878;2024-01-30T23:44:52;3.28;;;1.92;;
44078;SDS011;29744;49.078;12.878;2024-01-30T23:49:53;2.85;;;1.70;;
44078;SDS011;29744;49.078;12.878;2024-01-30T23:54:54;2.92;;;1.80;;
44078;SDS011;29744;49.078;12.878;2024-01-30T23:59:54;2.90;;;1.73;;
